createdAt,value
2018-10-12T00:00:58.372Z,99.90
2018-10-12T00:03:27.025Z,99.90
2018-10-12T00:05:55.677Z,99.90
2018-10-12T00:08:24.372Z,99.90
2018-10-12T00:10:52.989Z,99.90
2018-10-12T00:13:21.632Z,99.90
2018-10-12T00:15:50.348Z,99.90
2018-10-12T00:18:18.968Z,99.90
2018-10-12T00:20:47.642Z,99.90
2018-10-12T00:23:16.249Z,99.90
2018-10-12T00:25:44.853Z,99.90
2018-10-12T00:28:13.576Z,99.90
2018-10-12T00:30:42.225Z,99.90
2018-10-12T00:33:10.876Z,99.90
2018-10-12T00:35:39.470Z,99.90
2018-10-12T00:38:08.082Z,99.90
2018-10-12T00:40:36.727Z,99.90
2018-10-12T00:43:05.401Z,99.90
2018-10-12T00:45:34.035Z,99.90
2018-10-12T00:48:02.885Z,99.90
2018-10-12T00:50:32.505Z,99.90
2018-10-12T00:53:01.429Z,99.90
2018-10-12T00:55:32.425Z,99.90
2018-10-12T00:58:01.081Z,99.90
2018-10-12T01:00:29.772Z,99.90
2018-10-12T01:02:58.703Z,99.90
2018-10-12T01:05:27.355Z,99.90
2018-10-12T01:07:56.000Z,99.90
2018-10-12T01:10:24.644Z,99.90
2018-10-12T01:12:53.299Z,99.90
2018-10-12T01:15:22.084Z,99.90
2018-10-12T01:17:50.757Z,99.90
2018-10-12T01:23:12.181Z,99.90
2018-10-12T01:25:40.893Z,99.90
2018-10-12T01:28:09.694Z,99.90
2018-10-12T01:30:38.421Z,99.90
2018-10-12T01:33:07.520Z,99.90
2018-10-12T01:35:36.158Z,99.90
2018-10-12T01:38:04.947Z,99.90
2018-10-12T01:40:33.839Z,99.90
2018-10-12T01:43:02.757Z,99.90
2018-10-12T01:45:31.481Z,99.90
2018-10-12T01:48:00.113Z,99.90
2018-10-12T01:50:28.773Z,99.90
2018-10-12T01:52:57.408Z,99.90
2018-10-12T01:55:26.084Z,99.90
2018-10-12T01:57:54.739Z,99.90
2018-10-12T02:00:23.811Z,99.90
2018-10-12T02:02:52.491Z,99.90
2018-10-12T02:05:21.145Z,99.90
2018-10-12T02:07:55.449Z,99.90
2018-10-12T02:10:24.083Z,99.90
2018-10-12T02:12:52.707Z,99.90
2018-10-12T02:15:21.344Z,99.90
2018-10-12T02:17:49.961Z,99.90
2018-10-12T02:20:18.601Z,99.90
2018-10-12T02:22:47.208Z,99.90
2018-10-12T02:25:15.813Z,99.90
2018-10-12T02:27:44.500Z,99.90
2018-10-12T02:30:13.159Z,99.90
2018-10-12T02:32:41.820Z,99.90
2018-10-12T02:35:10.432Z,99.90
2018-10-12T02:37:39.056Z,99.90
2018-10-12T02:40:07.754Z,99.90
2018-10-12T02:42:36.377Z,99.90
2018-10-12T02:45:10.880Z,99.90
2018-10-12T02:47:39.488Z,99.90
2018-10-12T02:50:08.388Z,99.90
2018-10-12T02:52:37.011Z,99.90
2018-10-12T02:55:06.079Z,99.90
2018-10-12T02:57:34.923Z,99.90
2018-10-12T03:00:04.084Z,99.90
2018-10-12T03:02:32.705Z,99.90
2018-10-12T03:05:01.346Z,99.90
2018-10-12T03:07:29.952Z,99.90
2018-10-12T03:09:58.632Z,99.90
2018-10-12T03:12:27.300Z,99.90
2018-10-12T03:14:55.948Z,99.90
2018-10-12T03:17:24.625Z,99.90
2018-10-12T03:19:53.252Z,99.90
2018-10-12T03:22:21.904Z,99.90
2018-10-12T03:24:50.536Z,99.90
2018-10-12T03:27:19.152Z,99.90
2018-10-12T03:29:47.842Z,99.90
2018-10-12T03:32:16.529Z,99.90
2018-10-12T03:34:45.287Z,99.90
2018-10-12T03:37:14.056Z,99.90
2018-10-12T03:39:42.764Z,99.90
2018-10-12T03:42:11.484Z,99.90
2018-10-12T03:44:40.135Z,99.90
2018-10-12T03:47:08.961Z,99.90
2018-10-12T03:49:37.619Z,99.90
2018-10-12T03:52:08.582Z,99.90
2018-10-12T03:54:37.396Z,99.90
2018-10-12T03:57:06.043Z,99.90
2018-10-12T03:59:34.668Z,99.90
2018-10-12T04:02:03.324Z,99.90
2018-10-12T04:04:32.012Z,99.90
2018-10-12T04:07:00.673Z,99.90
2018-10-12T04:09:29.549Z,99.90
2018-10-12T04:11:58.273Z,99.90
2018-10-12T04:14:27.001Z,99.90
2018-10-12T04:16:55.660Z,99.90
2018-10-12T04:19:24.285Z,99.90
2018-10-12T04:21:52.933Z,99.90
2018-10-12T04:24:21.606Z,99.90
2018-10-12T04:26:50.274Z,99.90
2018-10-12T04:29:18.917Z,99.90
2018-10-12T04:31:47.560Z,99.90
2018-10-12T04:34:16.180Z,99.90
2018-10-12T04:36:44.828Z,99.90
2018-10-12T04:39:24.713Z,99.90
2018-10-12T04:41:53.386Z,99.90
2018-10-12T04:44:22.084Z,99.90
2018-10-12T04:46:50.833Z,99.90
2018-10-12T04:49:19.555Z,99.90
2018-10-12T04:51:52.176Z,99.90
2018-10-12T04:54:21.548Z,99.90
2018-10-12T04:56:50.660Z,99.90
2018-10-12T04:59:19.656Z,99.90
2018-10-12T05:01:48.401Z,99.90
2018-10-12T05:04:17.112Z,99.90
2018-10-12T05:06:45.804Z,99.90
2018-10-12T05:09:15.116Z,99.90
2018-10-12T05:11:44.028Z,99.90
2018-10-12T05:14:12.789Z,99.90
2018-10-12T05:16:41.528Z,99.90
2018-10-12T05:19:10.188Z,99.90
2018-10-12T05:21:38.821Z,99.90
2018-10-12T05:24:07.472Z,99.90
2018-10-12T05:26:36.163Z,99.90
2018-10-12T05:29:04.861Z,99.90
2018-10-12T05:31:33.524Z,99.90
2018-10-12T05:34:02.543Z,99.90
2018-10-12T05:36:31.835Z,99.90
2018-10-12T05:39:00.445Z,99.90
2018-10-12T05:41:29.112Z,99.90
2018-10-12T05:43:57.725Z,99.90
2018-10-12T05:46:26.368Z,99.90
2018-10-12T05:49:06.081Z,99.90
2018-10-12T05:51:34.784Z,99.90
2018-10-12T05:54:03.536Z,99.90
2018-10-12T05:56:33.220Z,99.90
2018-10-12T05:59:02.304Z,99.90
2018-10-12T06:01:31.049Z,99.90
2018-10-12T06:03:59.756Z,99.90
2018-10-12T06:06:28.824Z,99.90
2018-10-12T06:08:57.502Z,99.90
2018-10-12T06:11:26.300Z,99.90
2018-10-12T06:13:54.842Z,99.90
2018-10-12T06:16:23.852Z,99.90
2018-10-12T06:18:52.494Z,99.90
2018-10-12T06:21:21.117Z,99.90
2018-10-12T06:23:49.786Z,99.90
2018-10-12T06:26:18.453Z,99.90
2018-10-12T06:28:47.095Z,99.90
2018-10-12T06:31:15.897Z,99.90
2018-10-12T06:33:44.526Z,99.90
2018-10-12T06:36:13.172Z,99.90
2018-10-12T06:38:41.804Z,99.90
2018-10-12T06:41:10.434Z,99.90
2018-10-12T06:43:39.127Z,99.90
2018-10-12T06:46:07.755Z,99.90
2018-10-12T06:48:36.442Z,99.90
2018-10-12T06:51:05.108Z,99.90
2018-10-12T06:53:33.733Z,99.90
2018-10-12T06:56:02.413Z,99.90
2018-10-12T06:58:31.049Z,99.90
2018-10-12T07:00:59.703Z,99.90
2018-10-12T07:03:28.368Z,99.90
2018-10-12T07:05:57.116Z,99.90
2018-10-12T07:08:25.776Z,99.90
2018-10-12T07:10:54.402Z,99.90
2018-10-12T07:13:23.132Z,99.90
2018-10-12T07:15:51.749Z,99.90
2018-10-12T07:18:20.400Z,99.90
2018-10-12T07:20:49.067Z,99.90
2018-10-12T07:23:17.731Z,99.90
2018-10-12T07:25:46.364Z,99.90
2018-10-12T07:28:15.068Z,99.90
2018-10-12T07:30:43.688Z,99.90
2018-10-12T07:33:12.332Z,99.90
2018-10-12T07:35:40.982Z,99.90
2018-10-12T07:38:09.644Z,99.90
2018-10-12T07:40:38.287Z,99.90
2018-10-12T07:43:06.916Z,99.90
2018-10-12T07:45:35.544Z,99.90
2018-10-12T07:48:04.249Z,99.90
2018-10-12T07:50:32.853Z,99.90
2018-10-12T07:53:01.532Z,99.90
2018-10-12T07:55:30.197Z,99.90
2018-10-12T07:57:58.831Z,99.90
2018-10-12T08:00:27.504Z,99.90
2018-10-12T08:02:56.173Z,99.90
2018-10-12T08:05:24.784Z,99.90
2018-10-12T08:07:53.459Z,99.90
2018-10-12T08:10:22.108Z,99.90
2018-10-12T08:12:50.766Z,99.90
2018-10-12T08:15:19.405Z,99.90
2018-10-12T08:17:48.068Z,99.90
2018-10-12T08:20:16.815Z,99.90
2018-10-12T08:22:45.455Z,99.90
2018-10-12T08:25:14.130Z,99.90
2018-10-12T08:27:42.747Z,99.90
2018-10-12T08:30:11.421Z,99.90
2018-10-12T08:32:40.135Z,99.90
2018-10-12T08:35:08.845Z,99.90
2018-10-12T08:37:37.487Z,99.90
2018-10-12T08:40:06.149Z,99.90
2018-10-12T08:42:34.800Z,99.90
2018-10-12T08:45:03.467Z,99.90
2018-10-12T08:47:32.107Z,99.90
2018-10-12T08:50:00.734Z,99.90
2018-10-12T08:52:29.412Z,99.90
2018-10-12T08:54:58.069Z,99.90
2018-10-12T08:57:26.722Z,99.90
2018-10-12T08:59:55.341Z,99.90
2018-10-12T09:02:23.986Z,99.90
2018-10-12T09:04:52.641Z,99.90
2018-10-12T09:07:21.297Z,99.90
2018-10-12T09:09:49.928Z,99.90
2018-10-12T09:12:18.611Z,99.90
2018-10-12T09:14:47.248Z,99.90
2018-10-12T09:17:15.952Z,99.90
2018-10-12T09:19:44.595Z,99.90
2018-10-12T09:22:13.241Z,99.90
2018-10-12T09:24:41.925Z,99.90
2018-10-12T09:27:10.678Z,99.90
2018-10-12T09:32:07.642Z,99.90
2018-10-12T09:34:36.281Z,99.90
2018-10-12T09:37:05.006Z,99.90
2018-10-12T09:39:33.597Z,99.90
2018-10-12T09:42:02.266Z,99.90
2018-10-12T09:44:30.908Z,99.90
2018-10-12T09:46:59.568Z,99.90
2018-10-12T09:49:28.459Z,99.90
2018-10-12T09:51:57.134Z,99.90
2018-10-12T09:54:25.757Z,99.90
2018-10-12T09:56:59.603Z,99.90
2018-10-12T09:59:28.254Z,99.90
2018-10-12T10:02:02.177Z,99.90
2018-10-12T10:04:31.775Z,99.90
2018-10-12T10:07:01.599Z,99.90
2018-10-12T10:09:30.226Z,99.90
2018-10-12T10:11:59.250Z,99.90
2018-10-12T10:14:28.375Z,99.90
2018-10-12T10:16:57.041Z,99.90
2018-10-12T10:19:25.707Z,99.90
2018-10-12T10:21:54.362Z,99.90
2018-10-12T10:24:23.000Z,99.90
2018-10-12T10:26:51.665Z,99.90
2018-10-12T10:29:20.406Z,99.90
2018-10-12T10:31:49.027Z,99.90
2018-10-12T10:34:17.684Z,99.90
2018-10-12T10:36:46.341Z,99.90
2018-10-12T10:39:14.969Z,99.90
2018-10-12T10:41:43.642Z,99.90
2018-10-12T10:44:12.345Z,99.90
2018-10-12T10:46:41.023Z,99.90
2018-10-12T10:49:09.694Z,99.90
2018-10-12T10:51:38.337Z,99.90
2018-10-12T10:54:07.100Z,99.90
2018-10-12T10:56:35.744Z,99.90
2018-10-12T11:08:57.559Z,99.90
2018-10-12T11:11:26.192Z,99.90
2018-10-12T11:13:54.824Z,99.90
2018-10-12T11:16:23.451Z,99.90
2018-10-12T11:18:52.092Z,99.90
2018-10-12T11:21:20.732Z,99.90
2018-10-12T11:23:49.351Z,99.90
2018-10-12T11:26:18.049Z,99.90
2018-10-12T11:28:46.714Z,99.90
2018-10-12T11:31:15.373Z,99.90
2018-10-12T11:33:44.032Z,99.90
2018-10-12T11:36:12.640Z,99.90
2018-10-12T11:38:41.271Z,99.90
2018-10-12T11:41:11.959Z,99.90
2018-10-12T11:43:41.037Z,99.90
2018-10-12T11:48:38.135Z,99.90
2018-10-12T11:51:06.820Z,99.90
2018-10-12T11:53:35.460Z,99.90
2018-10-12T11:56:04.498Z,99.90
2018-10-12T11:58:33.440Z,99.90
2018-10-12T12:01:02.146Z,99.90
2018-10-12T12:03:30.864Z,99.90
2018-10-12T12:05:59.469Z,99.90
2018-10-12T12:08:28.173Z,99.90
2018-10-12T12:11:00.764Z,99.90
2018-10-12T12:13:29.382Z,99.90
2018-10-12T12:15:57.993Z,99.90
2018-10-12T12:18:26.803Z,99.90
2018-10-12T12:20:55.447Z,99.90
2018-10-12T12:23:24.076Z,99.90
2018-10-12T12:25:53.224Z,99.90
2018-10-12T12:28:23.877Z,99.90
2018-10-12T12:30:52.933Z,99.90
2018-10-12T12:33:21.573Z,99.90
2018-10-12T12:35:50.530Z,99.90
2018-10-12T12:38:18.912Z,99.90
2018-10-12T12:40:52.312Z,99.90
2018-10-12T12:43:20.948Z,99.90
2018-10-12T12:45:50.334Z,99.90
2018-10-12T12:48:19.168Z,99.90
2018-10-12T12:50:47.663Z,99.90
2018-10-12T12:53:16.324Z,99.90
2018-10-12T12:55:45.049Z,99.90
2018-10-12T12:58:13.681Z,99.90
2018-10-12T13:00:42.317Z,99.90
2018-10-12T13:03:10.944Z,99.90
2018-10-12T13:05:39.609Z,99.90
2018-10-12T13:08:08.324Z,99.90
2018-10-12T13:10:37.052Z,99.90
2018-10-12T13:13:05.761Z,99.90
2018-10-12T13:15:34.384Z,99.60
2018-10-12T13:18:03.053Z,98.80
2018-10-12T13:20:31.802Z,98.40
2018-10-12T13:23:00.481Z,99.40
2018-10-12T13:25:29.119Z,99.90
2018-10-12T13:27:57.777Z,99.90
2018-10-12T13:30:26.398Z,99.90
2018-10-12T13:32:55.017Z,99.90
2018-10-12T13:35:23.883Z,99.90
2018-10-12T13:37:52.614Z,99.90
2018-10-12T13:40:21.261Z,99.90
2018-10-12T13:42:50.102Z,99.90
2018-10-12T13:45:18.764Z,99.90
2018-10-12T13:47:47.416Z,99.90
2018-10-12T13:50:16.741Z,99.90
2018-10-12T13:52:45.401Z,99.90
2018-10-12T13:55:14.039Z,99.90
2018-10-12T13:57:42.738Z,99.90
2018-10-12T14:00:11.405Z,99.90
2018-10-12T14:02:40.089Z,99.30
2018-10-12T14:05:08.769Z,99.50
2018-10-12T14:07:37.429Z,99.40
2018-10-12T14:10:06.362Z,99.40
2018-10-12T14:12:35.054Z,98.70
2018-10-12T14:15:03.873Z,98.10
2018-10-12T14:17:32.510Z,97.40
2018-10-12T14:20:01.240Z,97.10
2018-10-12T14:22:29.894Z,96.40
2018-10-12T14:24:58.539Z,96.50
2018-10-12T14:27:27.195Z,96.50
2018-10-12T14:29:55.895Z,96.70
2018-10-12T14:32:25.084Z,97.30
2018-10-12T14:34:53.894Z,97.40
2018-10-12T14:37:22.545Z,97.20
2018-10-12T14:39:51.186Z,99.90
2018-10-12T14:44:48.184Z,99.90
2018-10-12T14:47:16.855Z,99.90
2018-10-12T14:49:45.525Z,99.90
2018-10-12T14:52:14.230Z,97.70
2018-10-12T14:54:42.974Z,97.80
2018-10-12T14:57:19.721Z,97.30
2018-10-12T14:59:49.634Z,97.40
2018-10-12T15:02:19.057Z,98.10
2018-10-12T15:04:47.908Z,98.30
2018-10-12T15:07:16.554Z,98.40
2018-10-12T15:09:45.237Z,98.30
2018-10-12T15:12:13.870Z,99.00
2018-10-12T15:14:53.600Z,99.90
2018-10-12T15:17:23.107Z,99.90
2018-10-12T15:19:51.761Z,99.10
2018-10-12T15:22:20.388Z,99.10
2018-10-12T15:24:49.165Z,99.10
2018-10-12T15:27:17.851Z,99.10
2018-10-12T15:29:46.493Z,99.20
2018-10-12T15:32:15.333Z,99.80
2018-10-12T15:34:43.925Z,99.30
2018-10-12T15:37:12.649Z,99.80
2018-10-12T15:39:41.319Z,99.90
2018-10-12T15:42:09.984Z,99.90
2018-10-12T15:44:38.746Z,99.90
2018-10-12T15:47:07.367Z,99.90
2018-10-12T15:49:36.051Z,99.90
2018-10-12T15:52:04.701Z,99.90
2018-10-12T15:54:33.371Z,99.90
2018-10-12T15:57:02.075Z,99.90
2018-10-12T15:59:30.705Z,99.90
2018-10-12T16:01:59.417Z,99.90
2018-10-12T16:04:28.073Z,99.90
2018-10-12T16:06:56.888Z,99.90
2018-10-12T16:09:25.604Z,99.90
2018-10-12T16:11:54.420Z,99.90
2018-10-12T16:14:23.132Z,99.90
2018-10-12T16:16:51.772Z,99.90
2018-10-12T16:19:20.376Z,99.90
2018-10-12T16:21:49.035Z,99.90
2018-10-12T16:24:17.664Z,99.90
2018-10-12T16:26:46.329Z,99.90
2018-10-12T16:29:15.032Z,99.90
2018-10-12T16:31:43.656Z,99.90
2018-10-12T16:34:12.269Z,99.90
2018-10-12T16:36:40.942Z,99.90
2018-10-12T16:39:10.262Z,99.90
2018-10-12T16:41:39.600Z,99.90
2018-10-12T16:44:08.597Z,99.90
2018-10-12T16:46:37.209Z,99.90
2018-10-12T16:49:06.332Z,99.90
2018-10-12T16:51:35.024Z,99.90
2018-10-12T16:54:03.712Z,99.90
2018-10-12T16:56:32.338Z,99.90
2018-10-12T16:59:01.021Z,99.90
2018-10-12T17:01:29.668Z,99.90
2018-10-12T17:19:16.129Z,99.90
2018-10-12T17:21:44.788Z,99.90
2018-10-12T17:24:13.411Z,99.90
2018-10-12T17:26:42.087Z,99.90
2018-10-12T17:29:10.744Z,99.90
2018-10-12T17:31:39.373Z,99.90
2018-10-12T17:34:08.052Z,99.90
2018-10-12T17:36:36.724Z,99.90
2018-10-12T17:39:09.456Z,99.90
2018-10-12T17:41:38.106Z,99.90
2018-10-12T17:44:06.777Z,99.90
2018-10-12T17:46:35.489Z,99.90
2018-10-12T17:49:04.139Z,99.90
2018-10-12T17:51:32.792Z,99.90
2018-10-12T17:54:01.456Z,99.90
2018-10-12T17:56:30.126Z,99.90
2018-10-12T17:58:58.794Z,99.90
2018-10-12T18:01:27.489Z,99.90
2018-10-12T18:03:56.137Z,99.90
2018-10-12T18:06:24.771Z,99.90
2018-10-12T18:08:53.482Z,99.90
2018-10-12T18:11:22.091Z,99.90
2018-10-12T18:13:50.765Z,99.90
2018-10-12T18:16:19.448Z,99.90
2018-10-12T18:18:51.636Z,99.90
2018-10-12T18:21:20.375Z,99.90
2018-10-12T18:23:49.012Z,99.90
2018-10-12T18:26:17.640Z,99.90
2018-10-12T18:28:46.284Z,99.90
2018-10-12T18:31:14.931Z,99.90
2018-10-12T18:33:43.559Z,99.90
2018-10-12T18:36:12.281Z,99.90
2018-10-12T18:38:40.882Z,99.90
2018-10-12T18:41:09.751Z,99.90
2018-10-12T18:43:38.411Z,99.90
2018-10-12T18:46:07.045Z,99.90
2018-10-12T18:48:35.672Z,99.90
2018-10-12T18:51:04.347Z,99.90
2018-10-12T18:53:33.084Z,99.90
2018-10-12T18:56:01.729Z,99.90
2018-10-12T18:58:30.401Z,99.90
2018-10-12T19:00:59.141Z,99.90
2018-10-12T19:03:27.788Z,99.90
2018-10-12T19:05:56.447Z,99.90
2018-10-12T19:08:25.143Z,99.90
2018-10-12T19:10:53.806Z,99.90
2018-10-12T19:13:22.563Z,99.90
2018-10-12T19:15:51.455Z,99.90
2018-10-12T19:18:20.122Z,99.90
2018-10-12T19:20:48.812Z,99.90
2018-10-12T19:23:17.495Z,99.90
2018-10-12T19:25:46.164Z,99.90
2018-10-12T19:28:14.846Z,99.90
2018-10-12T19:30:43.518Z,99.90
2018-10-12T19:33:12.158Z,99.90
2018-10-12T19:35:40.878Z,99.90
2018-10-12T19:38:09.574Z,99.90
2018-10-12T19:40:38.232Z,99.90
2018-10-12T19:43:06.965Z,99.90
2018-10-12T19:45:35.599Z,99.90
2018-10-12T19:48:04.269Z,99.90
2018-10-12T19:50:32.973Z,99.90
2018-10-12T19:53:01.661Z,99.90
2018-10-12T19:55:30.317Z,99.90
2018-10-12T19:57:59.045Z,99.90
2018-10-12T20:00:29.942Z,99.90
2018-10-12T20:03:02.106Z,99.90
2018-10-12T20:05:30.899Z,99.90
2018-10-12T20:07:59.609Z,99.90
2018-10-12T20:10:33.698Z,99.90
2018-10-12T20:13:06.893Z,99.90
2018-10-12T20:15:39.057Z,99.90
2018-10-12T20:18:07.942Z,99.90
2018-10-12T20:20:36.637Z,99.90
2018-10-12T20:23:05.648Z,99.90
2018-10-12T20:25:34.376Z,99.90
2018-10-12T20:28:03.063Z,99.90
2018-10-12T20:30:37.714Z,99.90
2018-10-12T20:33:06.404Z,99.90
2018-10-12T20:35:38.337Z,99.90
2018-10-12T20:38:09.154Z,99.90
2018-10-12T20:40:38.846Z,99.90
2018-10-12T20:43:20.590Z,99.90
2018-10-12T20:45:49.310Z,99.90
2018-10-12T20:48:18.445Z,99.90
2018-10-12T20:50:47.186Z,99.90
2018-10-12T20:53:15.892Z,99.90
2018-10-12T20:55:44.558Z,99.90
2018-10-12T20:58:15.634Z,99.90
2018-10-12T21:00:44.863Z,99.90
2018-10-12T21:03:13.524Z,99.90
2018-10-12T21:05:42.536Z,99.90
2018-10-12T21:08:11.245Z,99.90
2018-10-12T21:10:39.966Z,99.90
2018-10-12T21:13:08.662Z,99.90
2018-10-12T21:15:37.409Z,99.90
2018-10-12T21:18:06.327Z,99.90
2018-10-12T21:20:34.950Z,99.90
2018-10-12T21:23:03.668Z,99.90
2018-10-12T21:25:32.391Z,99.90
2018-10-12T21:28:05.454Z,99.90
2018-10-12T21:30:34.103Z,99.90
2018-10-12T21:33:02.788Z,99.90
2018-10-12T21:35:31.473Z,99.90
2018-10-12T21:38:00.106Z,99.90
2018-10-12T21:40:28.789Z,99.90
2018-10-12T21:42:57.452Z,99.90
2018-10-12T21:45:26.056Z,99.90
2018-10-12T21:47:54.757Z,99.90
2018-10-12T21:50:23.758Z,99.90
2018-10-12T21:52:52.504Z,99.90
2018-10-12T21:55:21.206Z,99.90
2018-10-12T21:57:49.854Z,99.90
2018-10-12T22:00:18.589Z,99.90
2018-10-12T22:02:48.272Z,99.90
2018-10-12T22:05:17.000Z,99.90
2018-10-12T22:07:45.623Z,99.90
2018-10-12T22:10:14.316Z,99.90
2018-10-12T22:12:42.973Z,99.90
2018-10-12T22:15:11.604Z,99.90
2018-10-12T22:17:40.241Z,99.90
2018-10-12T22:20:08.887Z,99.90
2018-10-12T22:22:37.555Z,99.90
2018-10-12T22:25:06.345Z,99.90
2018-10-12T22:27:35.006Z,99.90
2018-10-12T22:30:03.757Z,99.90
2018-10-12T22:32:32.459Z,99.90
2018-10-12T22:35:01.080Z,99.90
2018-10-12T22:37:29.748Z,99.90
2018-10-12T22:39:58.450Z,99.90
2018-10-12T22:42:27.076Z,99.90
2018-10-12T22:44:55.720Z,99.90
2018-10-12T22:47:24.406Z,99.90
2018-10-12T22:49:53.083Z,99.90
2018-10-12T22:52:21.745Z,99.90
2018-10-12T22:54:50.426Z,99.90
2018-10-12T22:57:19.067Z,99.90
2018-10-12T22:59:51.577Z,99.90
2018-10-12T23:02:20.228Z,99.90
2018-10-12T23:04:48.872Z,99.90
2018-10-12T23:07:17.544Z,99.90
2018-10-12T23:09:46.203Z,99.90
2018-10-12T23:12:14.871Z,99.90
2018-10-12T23:14:43.555Z,99.90
2018-10-12T23:17:12.215Z,99.90
2018-10-12T23:19:40.871Z,99.90
2018-10-12T23:22:09.580Z,99.90
2018-10-12T23:24:38.209Z,99.90
2018-10-12T23:27:07.173Z,99.90
2018-10-12T23:29:35.828Z,99.90
2018-10-12T23:32:04.470Z,99.90
2018-10-12T23:34:33.151Z,99.90
2018-10-12T23:37:01.843Z,99.90
2018-10-12T23:39:30.492Z,99.90
2018-10-12T23:41:59.151Z,99.90
2018-10-12T23:44:27.828Z,99.90
2018-10-12T23:46:56.515Z,99.90
2018-10-12T23:49:25.166Z,99.90
2018-10-12T23:51:53.853Z,99.90
2018-10-12T23:54:22.552Z,99.90
2018-10-12T23:56:51.269Z,99.90
2018-10-12T23:59:19.908Z,99.90
